createdAt,value
2018-05-18T00:00:30.912Z,9.47
2018-05-18T00:01:40.653Z,9.37
2018-05-18T00:02:50.660Z,9.39
2018-05-18T00:04:00.404Z,9.37
2018-05-18T00:05:09.888Z,9.3
2018-05-18T00:06:19.639Z,9.3
2018-05-18T00:07:29.667Z,9.15
2018-05-18T00:08:39.417Z,9.19
2018-05-18T00:09:49.478Z,9.12
2018-05-18T00:10:59.485Z,9.16
2018-05-18T00:12:08.964Z,9.19
2018-05-18T00:13:18.974Z,9.18
2018-05-18T00:14:28.447Z,9.16
2018-05-18T00:15:38.012Z,9.26
2018-05-18T00:16:47.487Z,9.15
2018-05-18T00:17:57.232Z,9.19
2018-05-18T00:19:06.982Z,9.21
2018-05-18T00:20:16.727Z,9.16
2018-05-18T00:21:26.209Z,9.16
2018-05-18T00:22:35.958Z,9.12
2018-05-18T00:23:45.166Z,9.19
2018-05-18T00:24:55.175Z,9.19
2018-05-18T00:26:04.648Z,9.16
2018-05-18T00:27:14.656Z,9.16
2018-05-18T00:28:24.413Z,9.15
2018-05-18T00:29:34.153Z,9.12
2018-05-18T00:30:43.633Z,9.16
2018-05-18T00:31:53.641Z,9.18
2018-05-18T00:33:03.670Z,9.13
2018-05-18T00:34:13.153Z,9.18
2018-05-18T00:35:22.630Z,9.19
2018-05-18T00:36:32.733Z,9.19
2018-05-18T00:37:42.496Z,9.19
2018-05-18T00:38:52.235Z,9.18
2018-05-18T00:40:02.384Z,9.08
2018-05-18T00:41:12.190Z,9.11
2018-05-18T00:42:21.666Z,9.16
2018-05-18T00:43:31.675Z,9.12
2018-05-18T00:44:41.684Z,8.97
2018-05-18T00:45:51.694Z,8.97
2018-05-18T00:47:01.709Z,8.95
2018-05-18T00:48:11.733Z,8.87
2018-05-18T00:49:21.473Z,8.87
2018-05-18T00:50:31.224Z,8.77
2018-05-18T00:51:41.241Z,8.87
2018-05-18T00:52:51.247Z,8.78
2018-05-18T00:54:01.261Z,8.78
2018-05-18T00:55:11.272Z,8.77
2018-05-18T00:56:21.274Z,8.72
2018-05-18T00:57:31.281Z,8.68
2018-05-18T00:58:40.489Z,8.79
2018-05-18T00:59:49.702Z,8.77
2018-05-18T01:00:58.911Z,8.69
2018-05-18T01:02:08.654Z,8.68
2018-05-18T01:03:18.401Z,8.69
2018-05-18T01:04:27.439Z,8.71
2018-05-18T01:05:37.452Z,8.68
2018-05-18T01:06:47.469Z,8.56
2018-05-18T01:07:56.937Z,8.63
2018-05-18T01:09:06.695Z,8.56
2018-05-18T01:10:16.700Z,8.57
2018-05-18T01:11:26.711Z,8.53
2018-05-18T01:12:36.721Z,8.59
2018-05-18T01:13:46.729Z,8.54
2018-05-18T01:14:56.827Z,8.57
2018-05-18T01:16:06.568Z,8.56
2018-05-18T01:17:16.316Z,8.41
2018-05-18T01:18:26.328Z,8.49
2018-05-18T01:19:36.076Z,8.41
2018-05-18T01:20:45.816Z,8.44
2018-05-18T01:21:55.826Z,8.39
2018-05-18T01:23:05.576Z,8.34
2018-05-18T01:24:15.596Z,8.35
2018-05-18T01:25:25.332Z,8.36
2018-05-18T01:26:34.807Z,8.38
2018-05-18T01:27:44.819Z,8.31
2018-05-18T01:28:54.824Z,8.26
2018-05-18T01:30:04.846Z,8.27
2018-05-18T01:31:14.854Z,8.31
2018-05-18T01:32:24.861Z,8.23
2018-05-18T01:33:34.867Z,8.28
2018-05-18T01:34:44.337Z,8.2
2018-05-18T01:35:54.079Z,8.24
2018-05-18T01:37:03.823Z,8.31
2018-05-18T01:38:13.562Z,8.21
2018-05-18T01:39:23.297Z,8.18
2018-05-18T01:40:33.044Z,8.13
2018-05-18T01:41:42.786Z,8.09
2018-05-18T01:42:52.607Z,8.17
2018-05-18T01:44:02.619Z,8.13
2018-05-18T01:45:12.630Z,8.08
2018-05-18T01:46:22.648Z,8.14
2018-05-18T01:47:32.668Z,8.03
2018-05-18T01:48:42.410Z,8.02
2018-05-18T01:49:52.150Z,8.03
2018-05-18T01:51:01.625Z,8.02
2018-05-18T01:52:10.833Z,7.96
2018-05-18T01:53:20.303Z,8.01
2018-05-18T01:54:29.775Z,7.87
2018-05-18T01:55:39.514Z,7.88
2018-05-18T01:56:49.291Z,7.93
2018-05-18T01:57:59.366Z,7.85
2018-05-18T01:59:09.118Z,7.88
2018-05-18T02:00:19.125Z,7.85
2018-05-18T02:01:28.379Z,7.93
2018-05-18T02:02:37.799Z,7.9
2018-05-18T02:03:47.539Z,7.87
2018-05-18T02:04:57.283Z,7.77
2018-05-18T02:06:06.489Z,7.91
2018-05-18T02:07:16.230Z,7.81
2018-05-18T02:08:26.242Z,7.84
2018-05-18T02:09:35.445Z,7.81
2018-05-18T02:10:45.187Z,7.81
2018-05-18T02:11:55.197Z,7.81
2018-05-18T02:13:05.202Z,7.77
2018-05-18T02:14:15.240Z,7.78
2018-05-18T02:15:25.243Z,7.72
2018-05-18T02:16:34.986Z,7.69
2018-05-18T02:17:44.519Z,7.77
2018-05-18T02:18:54.348Z,7.66
2018-05-18T02:20:04.085Z,7.69
2018-05-18T02:21:13.829Z,7.61
2018-05-18T02:22:23.836Z,7.67
2018-05-18T02:23:33.580Z,7.62
2018-05-18T02:24:43.319Z,7.53
2018-05-18T02:25:53.332Z,7.59
2018-05-18T02:27:03.073Z,7.62
2018-05-18T02:28:12.284Z,7.58
2018-05-18T02:29:22.290Z,7.56
2018-05-18T02:30:31.766Z,7.48
2018-05-18T02:31:41.888Z,7.47
2018-05-18T02:32:51.899Z,7.39
2018-05-18T02:34:01.921Z,7.32
2018-05-18T02:35:11.945Z,7.4
2018-05-18T02:36:21.956Z,7.36
2018-05-18T02:37:32.031Z,7.33
2018-05-18T02:38:42.067Z,7.44
2018-05-18T02:39:51.807Z,7.36
2018-05-18T02:41:01.832Z,7.31
2018-05-18T02:42:11.584Z,7.25
2018-05-18T02:43:21.054Z,7.29
2018-05-18T02:44:30.793Z,7.29
2018-05-18T02:45:40.533Z,7.22
2018-05-18T02:46:50.549Z,7.13
2018-05-18T02:48:00.024Z,7.26
2018-05-18T02:49:09.772Z,7.29
2018-05-18T02:50:19.518Z,7.23
2018-05-18T02:51:29.550Z,7.18
2018-05-18T02:52:39.298Z,7.13
2018-05-18T02:53:49.461Z,7.19
2018-05-18T02:54:59.204Z,7.18
2018-05-18T02:56:09.213Z,7.14
2018-05-18T02:57:18.962Z,7.14
2018-05-18T02:58:28.699Z,7.11
2018-05-18T02:59:38.450Z,7.13
2018-05-18T03:03:28.978Z,7.18
2018-05-18T03:04:39.003Z,7.13
2018-05-18T03:05:49.049Z,7.13
2018-05-18T03:06:59.075Z,7.14
2018-05-18T03:08:08.903Z,7.14
2018-05-18T03:09:18.921Z,7.15
2018-05-18T03:10:28.945Z,7.19
2018-05-18T03:11:38.958Z,7.15
2018-05-18T03:12:48.723Z,7.21
2018-05-18T03:13:58.465Z,7.19
2018-05-18T03:15:08.485Z,7.18
2018-05-18T03:16:18.490Z,7.19
2018-05-18T03:17:28.502Z,7.15
2018-05-18T03:18:38.512Z,7.11
2018-05-18T03:19:48.524Z,7.13
2018-05-18T03:20:58.665Z,7.19
2018-05-18T03:22:08.181Z,7.21
2018-05-18T03:23:17.929Z,7.15
2018-05-18T03:24:27.135Z,7.11
2018-05-18T03:25:36.883Z,7.14
2018-05-18T03:26:46.622Z,7.21
2018-05-18T03:27:56.629Z,7.21
2018-05-18T03:29:06.370Z,7.25
2018-05-18T03:30:16.113Z,7.29
2018-05-18T03:31:25.855Z,7.32
2018-05-18T03:32:36.331Z,7.36
2018-05-18T03:33:45.802Z,7.22
2018-05-18T03:34:55.540Z,7.32
2018-05-18T03:36:04.746Z,7.28
2018-05-18T03:37:14.224Z,7.28
2018-05-18T03:38:23.959Z,7.37
2018-05-18T03:39:33.432Z,7.37
2018-05-18T03:40:42.916Z,7.4
2018-05-18T03:41:52.659Z,7.43
2018-05-18T03:43:02.665Z,7.46
2018-05-18T03:44:12.412Z,7.48
2018-05-18T03:45:22.428Z,7.55
2018-05-18T03:46:32.165Z,7.53
2018-05-18T03:47:41.639Z,7.58
2018-05-18T03:48:51.382Z,7.62
2018-05-18T03:50:01.232Z,7.74
2018-05-18T03:51:10.706Z,7.61
2018-05-18T03:52:20.444Z,7.69
2018-05-18T03:53:29.928Z,7.78
2018-05-18T03:54:39.672Z,7.83
2018-05-18T03:55:48.875Z,7.78
2018-05-18T03:56:58.908Z,7.85
2018-05-18T03:58:08.651Z,7.83
2018-05-18T03:59:17.858Z,7.9
2018-05-18T04:00:27.621Z,7.88
2018-05-18T04:01:37.363Z,7.88
2018-05-18T04:02:47.106Z,7.93
2018-05-18T04:03:57.112Z,7.95
2018-05-18T04:05:06.314Z,7.96
2018-05-18T04:06:16.052Z,8.06
2018-05-18T04:07:25.527Z,7.95
2018-05-18T04:08:35.536Z,7.93
2018-05-18T04:09:45.284Z,7.93
2018-05-18T04:10:55.033Z,7.96
2018-05-18T04:12:04.789Z,7.91
2018-05-18T04:13:14.797Z,7.96
2018-05-18T04:14:24.803Z,7.96
2018-05-18T04:15:34.281Z,8.01
2018-05-18T04:16:43.755Z,7.93
2018-05-18T04:17:53.762Z,7.95
2018-05-18T04:19:03.237Z,7.93
2018-05-18T04:20:12.709Z,8.08
2018-05-18T04:21:22.720Z,8.02
2018-05-18T04:22:32.467Z,8.01
2018-05-18T04:23:42.484Z,8.03
2018-05-18T04:24:52.556Z,8.05
2018-05-18T04:26:02.384Z,8.09
2018-05-18T04:27:12.131Z,8.16
2018-05-18T04:28:21.873Z,8.17
2018-05-18T04:29:31.629Z,8.2
2018-05-18T04:30:41.376Z,8.23
2018-05-18T04:31:51.380Z,8.24
2018-05-18T04:33:01.130Z,8.21
2018-05-18T04:34:10.876Z,8.27
2018-05-18T04:35:20.619Z,8.2
2018-05-18T04:36:30.366Z,8.2
2018-05-18T04:37:40.104Z,8.2
2018-05-18T04:38:50.109Z,8.2
2018-05-18T04:40:00.112Z,8.2
2018-05-18T04:41:09.856Z,8.24
2018-05-18T04:42:19.593Z,8.26
2018-05-18T04:43:29.598Z,8.23
2018-05-18T04:44:39.608Z,8.32
2018-05-18T04:45:49.623Z,8.23
2018-05-18T04:46:59.364Z,8.23
2018-05-18T04:48:08.882Z,8.26
2018-05-18T04:49:18.900Z,8.31
2018-05-18T04:50:28.640Z,8.38
2018-05-18T04:51:38.645Z,8.42
2018-05-18T04:52:48.387Z,8.36
2018-05-18T04:53:58.127Z,8.46
2018-05-18T04:55:08.130Z,8.42
2018-05-18T04:56:17.874Z,8.53
2018-05-18T04:57:27.345Z,8.45
2018-05-18T04:58:37.090Z,8.54
2018-05-18T04:59:47.097Z,8.56
2018-05-18T05:00:57.134Z,8.53
2018-05-18T05:02:06.069Z,8.61
2018-05-18T05:03:16.084Z,8.63
2018-05-18T05:04:26.091Z,8.69
2018-05-18T05:05:36.019Z,8.66
2018-05-18T05:06:46.026Z,8.72
2018-05-18T05:07:56.038Z,8.74
2018-05-18T05:09:05.777Z,8.81
2018-05-18T05:10:15.517Z,8.75
2018-05-18T05:11:25.533Z,8.72
2018-05-18T05:12:35.493Z,8.77
2018-05-18T05:13:45.091Z,8.78
2018-05-18T05:14:55.105Z,8.81
2018-05-18T05:16:04.585Z,8.81
2018-05-18T05:17:14.610Z,8.74
2018-05-18T05:18:24.369Z,8.87
2018-05-18T05:19:34.376Z,8.89
2018-05-18T05:20:44.388Z,8.87
2018-05-18T05:21:53.858Z,8.87
2018-05-18T05:23:03.600Z,8.93
2018-05-18T05:24:13.614Z,8.84
2018-05-18T05:25:23.357Z,8.82
2018-05-18T05:26:33.364Z,8.77
2018-05-18T05:27:42.840Z,8.86
2018-05-18T05:28:52.582Z,8.9
2018-05-18T05:30:02.592Z,8.79
2018-05-18T05:31:12.602Z,9.03
2018-05-18T05:32:22.612Z,9.05
2018-05-18T05:33:32.366Z,8.99
2018-05-18T05:34:41.848Z,9
2018-05-18T05:35:51.859Z,9.08
2018-05-18T05:37:01.863Z,9.05
2018-05-18T05:38:11.072Z,8.96
2018-05-18T05:39:21.082Z,9.03
2018-05-18T05:40:30.836Z,9.12
2018-05-18T05:41:40.847Z,9.19
2018-05-18T05:42:50.869Z,9.16
2018-05-18T05:44:00.875Z,9.24
2018-05-18T05:45:10.611Z,9.33
2018-05-18T05:46:20.362Z,9.33
2018-05-18T05:47:30.386Z,9.3
2018-05-18T05:48:40.396Z,9.34
2018-05-18T05:49:50.146Z,9.45
2018-05-18T05:50:59.896Z,9.4
2018-05-18T05:52:09.737Z,9.54
2018-05-18T05:53:19.213Z,9.47
2018-05-18T05:54:28.963Z,9.49
2018-05-18T05:55:38.711Z,9.54
2018-05-18T05:56:48.461Z,9.52
2018-05-18T05:57:58.210Z,9.63
2018-05-18T05:59:07.954Z,9.51
2018-05-18T06:00:17.712Z,9.56
2018-05-18T06:01:27.818Z,9.56
2018-05-18T06:02:37.560Z,9.56
2018-05-18T06:03:47.311Z,9.64
2018-05-18T06:04:57.344Z,9.7
2018-05-18T06:06:07.097Z,9.7
2018-05-18T06:07:17.204Z,9.81
2018-05-18T06:08:27.219Z,9.76
2018-05-18T06:09:37.230Z,9.84
2018-05-18T06:10:46.977Z,9.85
2018-05-18T06:11:57.070Z,9.84
2018-05-18T06:13:06.579Z,9.92
2018-05-18T06:14:16.649Z,9.88
2018-05-18T06:15:26.491Z,9.91
2018-05-18T06:16:36.529Z,9.99
2018-05-18T06:17:46.566Z,9.95
2018-05-18T06:18:56.305Z,9.94
2018-05-18T06:20:06.043Z,10
2018-05-18T06:21:15.784Z,9.92
2018-05-18T06:22:25.796Z,9.95
2018-05-18T06:23:35.278Z,10.02
2018-05-18T06:24:45.285Z,10.12
2018-05-18T06:25:55.299Z,10.06
2018-05-18T06:27:05.308Z,10.15
2018-05-18T06:28:15.066Z,10.1
2018-05-18T06:29:24.811Z,10.17
2018-05-18T06:30:34.282Z,10.15
2018-05-18T06:31:44.026Z,10.18
2018-05-18T06:32:54.046Z,10.23
2018-05-18T06:34:04.059Z,10.15
2018-05-18T06:35:14.266Z,9.99
2018-05-18T06:36:24.821Z,10.17
2018-05-18T06:37:34.306Z,10.07
2018-05-18T06:38:44.055Z,10
2018-05-18T06:39:54.074Z,10.13
2018-05-18T06:41:03.550Z,10.12
2018-05-18T06:42:13.025Z,10.05
2018-05-18T06:43:22.498Z,9.94
2018-05-18T06:44:32.377Z,9.95
2018-05-18T06:45:41.851Z,9.97
2018-05-18T06:46:52.144Z,10
2018-05-18T06:48:02.023Z,10.1
2018-05-18T06:49:11.499Z,10.03
2018-05-18T06:50:21.504Z,10
2018-05-18T06:51:31.512Z,9.9
2018-05-18T06:52:41.522Z,9.88
2018-05-18T06:53:51.628Z,9.85
2018-05-18T06:55:01.388Z,9.82
2018-05-18T06:56:11.411Z,9.76
2018-05-18T06:57:20.888Z,9.77
2018-05-18T06:58:30.361Z,9.82
2018-05-18T06:59:40.116Z,9.88
2018-05-18T07:00:50.129Z,9.85
2018-05-18T07:02:00.141Z,9.91
2018-05-18T07:03:09.620Z,9.91
2018-05-18T07:04:19.638Z,9.9
2018-05-18T07:05:29.119Z,10.05
2018-05-18T07:06:38.623Z,10.12
2018-05-18T07:07:48.705Z,10.23
2018-05-18T07:08:58.491Z,10.27
2018-05-18T07:10:08.005Z,10.38
2018-05-18T07:11:18.023Z,10.33
2018-05-18T07:12:28.051Z,10.38
2018-05-18T07:13:37.814Z,10.45
2018-05-18T07:14:47.289Z,10.46
2018-05-18T07:15:57.039Z,10.51
2018-05-18T07:17:06.522Z,10.46
2018-05-18T07:18:16.290Z,10.61
2018-05-18T07:19:25.873Z,10.58
2018-05-18T07:20:35.087Z,10.69
2018-05-18T07:21:44.838Z,10.86
2018-05-18T07:22:54.963Z,10.83
2018-05-18T07:24:05.031Z,10.86
2018-05-18T07:25:14.506Z,10.89
2018-05-18T07:26:24.251Z,10.72
2018-05-18T07:27:34.273Z,10.77
2018-05-18T07:28:44.015Z,10.76
2018-05-18T07:29:53.220Z,10.69
2018-05-18T07:31:03.338Z,10.83
2018-05-18T07:32:13.350Z,10.92
2018-05-18T07:33:22.826Z,11
2018-05-18T07:34:32.842Z,11.02
2018-05-18T07:35:42.848Z,11.15
2018-05-18T07:36:52.856Z,11.15
2018-05-18T07:38:02.880Z,11.2
2018-05-18T07:39:12.625Z,11.23
2018-05-18T07:40:21.829Z,11.38
2018-05-18T07:41:31.607Z,11.4
2018-05-18T07:42:41.354Z,11.44
2018-05-18T07:43:51.503Z,11.53
2018-05-18T07:45:01.373Z,11.59
2018-05-18T07:46:10.852Z,11.58
2018-05-18T07:47:20.857Z,11.56
2018-05-18T07:48:30.598Z,11.58
2018-05-18T07:49:40.617Z,11.7
2018-05-18T07:50:50.364Z,11.76
2018-05-18T07:52:00.379Z,11.76
2018-05-18T07:53:09.599Z,11.85
2018-05-18T07:54:19.203Z,11.96
2018-05-18T07:55:28.942Z,11.93
2018-05-18T07:56:38.959Z,12.03
2018-05-18T07:57:48.438Z,12.11
2018-05-18T07:58:58.452Z,12.23
2018-05-18T08:00:08.194Z,12.2
2018-05-18T08:01:17.944Z,12.18
2018-05-18T08:02:27.964Z,12.29
2018-05-18T08:03:37.178Z,12.25
2018-05-18T08:04:46.935Z,12.33
2018-05-18T08:05:56.697Z,12.37
2018-05-18T08:07:06.714Z,12.36
2018-05-18T08:08:16.730Z,12.47
2018-05-18T08:09:26.476Z,12.47
2018-05-18T08:10:36.228Z,12.5
2018-05-18T08:11:45.709Z,12.58
2018-05-18T08:12:54.915Z,12.48
2018-05-18T08:14:04.394Z,12.58
2018-05-18T08:15:14.696Z,12.62
2018-05-18T08:16:24.176Z,12.62
2018-05-18T08:17:34.251Z,12.66
2018-05-18T08:18:43.994Z,12.69
2018-05-18T08:19:53.472Z,12.78
2018-05-18T08:21:03.228Z,12.72
2018-05-18T08:22:12.169Z,12.65
2018-05-18T08:23:22.182Z,12.48
2018-05-18T08:24:31.929Z,12.39
2018-05-18T08:25:41.673Z,12.32
2018-05-18T08:26:51.424Z,12.32
2018-05-18T08:28:01.174Z,12.3
2018-05-18T08:29:11.187Z,12.25
2018-05-18T08:30:21.199Z,12.18
2018-05-18T08:31:31.214Z,12.11
2018-05-18T08:32:40.967Z,12.21
2018-05-18T08:33:50.978Z,12.08
2018-05-18T08:35:00.986Z,11.93
2018-05-18T08:36:11.002Z,11.97
2018-05-18T08:37:21.029Z,11.95
2018-05-18T08:38:30.791Z,11.85
2018-05-18T08:39:40.807Z,12
2018-05-18T08:40:50.920Z,12.07
2018-05-18T08:42:00.936Z,12.17
2018-05-18T08:43:10.684Z,12.11
2018-05-18T08:44:20.649Z,12.23
2018-05-18T08:45:30.698Z,12.25
2018-05-18T08:46:40.175Z,12.26
2018-05-18T08:47:49.919Z,12.37
2018-05-18T08:48:59.669Z,12.44
2018-05-18T08:50:09.500Z,12.39
2018-05-18T08:51:19.255Z,12.43
2018-05-18T08:52:28.831Z,12.51
2018-05-18T08:53:38.318Z,12.47
2018-05-18T08:54:48.071Z,12.36
2018-05-18T08:55:58.093Z,12.32
2018-05-18T08:57:07.839Z,12.28
2018-05-18T08:58:17.319Z,12.35
2018-05-18T08:59:27.428Z,12.5
2018-05-18T09:00:37.088Z,12.44
2018-05-18T09:01:47.253Z,12.48
2018-05-18T09:02:57.272Z,12.5
2018-05-18T09:04:06.754Z,12.54
2018-05-18T09:05:16.766Z,12.57
2018-05-18T09:06:26.544Z,12.58
2018-05-18T09:07:36.022Z,12.4
2018-05-18T09:08:45.849Z,12.43
2018-05-18T09:09:55.612Z,12.48
2018-05-18T09:11:05.357Z,12.57
2018-05-18T09:12:15.103Z,12.55
2018-05-18T09:13:25.165Z,12.63
2018-05-18T09:14:35.176Z,12.65
2018-05-18T09:15:44.391Z,12.62
2018-05-18T09:16:54.445Z,12.69
2018-05-18T09:18:03.385Z,12.8
2018-05-18T09:19:13.154Z,12.86
2018-05-18T09:20:23.169Z,12.8
2018-05-18T09:21:32.910Z,12.83
2018-05-18T09:22:42.935Z,12.91
2018-05-18T09:23:52.435Z,12.99
2018-05-18T09:25:02.178Z,12.94
2018-05-18T09:26:12.192Z,12.93
2018-05-18T09:27:21.938Z,12.94
2018-05-18T09:28:31.415Z,12.87
2018-05-18T09:29:41.158Z,12.9
2018-05-18T09:30:51.175Z,13.01
2018-05-18T09:32:01.185Z,12.99
2018-05-18T09:33:10.941Z,12.94
2018-05-18T09:34:21.154Z,13.09
2018-05-18T09:35:30.631Z,13.16
2018-05-18T09:36:39.853Z,13.21
2018-05-18T09:37:49.598Z,13.3
2018-05-18T09:38:59.356Z,13.21
2018-05-18T09:40:08.837Z,13.4
2018-05-18T09:41:18.578Z,13.52
2018-05-18T09:42:28.343Z,13.67
2018-05-18T09:43:37.826Z,13.82
2018-05-18T09:44:47.578Z,13.79
2018-05-18T09:45:57.603Z,13.89
2018-05-18T09:47:07.620Z,13.91
2018-05-18T09:48:17.634Z,13.86
2018-05-18T09:49:26.845Z,13.95
2018-05-18T09:50:36.333Z,14.16
2018-05-18T09:51:46.085Z,14.19
2018-05-18T09:52:56.115Z,14.22
2018-05-18T09:54:06.053Z,14.31
2018-05-18T09:55:15.808Z,14.18
2018-05-18T09:56:26.752Z,14.12
2018-05-18T09:57:36.501Z,14.26
2018-05-18T09:58:46.256Z,14.15
2018-05-18T09:59:56.275Z,14.18
2018-05-18T10:01:06.294Z,14.25
2018-05-18T10:02:16.420Z,14.28
2018-05-18T10:03:26.177Z,14.3
2018-05-18T10:04:35.925Z,14.3
2018-05-18T10:05:45.944Z,14.16
2018-05-18T10:06:55.913Z,14.3
2018-05-18T10:08:05.549Z,14.26
2018-05-18T10:09:15.291Z,14.34
2018-05-18T10:10:25.057Z,14.28
2018-05-18T10:11:34.801Z,14.33
2018-05-18T10:12:44.287Z,14.37
2018-05-18T10:13:54.304Z,14.36
2018-05-18T10:15:04.323Z,14.45
2018-05-18T10:16:14.072Z,14.33
2018-05-18T10:17:23.816Z,14.4
2018-05-18T10:18:33.994Z,14.25
2018-05-18T10:19:43.880Z,14.3
2018-05-18T10:20:53.089Z,14.33
2018-05-18T10:22:02.303Z,14.33
2018-05-18T10:23:12.051Z,14.25
2018-05-18T10:24:21.804Z,14.23
2018-05-18T10:25:31.548Z,14.28
2018-05-18T10:26:41.381Z,14.31
2018-05-18T10:27:51.134Z,14.34
2018-05-18T10:29:00.893Z,14.41
2018-05-18T10:30:10.644Z,14.37
2018-05-18T10:31:20.662Z,14.49
2018-05-18T10:32:30.142Z,14.41
2018-05-18T10:33:39.898Z,14.49
2018-05-18T10:34:49.917Z,14.56
2018-05-18T10:35:59.935Z,14.58
2018-05-18T10:37:09.766Z,14.53
2018-05-18T10:38:19.785Z,14.51
2018-05-18T10:39:29.523Z,14.66
2018-05-18T10:40:39.369Z,14.56
2018-05-18T10:41:48.847Z,14.53
2018-05-18T10:42:58.595Z,14.67
2018-05-18T10:44:07.809Z,14.74
2018-05-18T10:45:17.972Z,14.94
2018-05-18T10:46:28.120Z,14.96
2018-05-18T10:47:38.136Z,14.96
2018-05-18T10:48:47.889Z,15.07
2018-05-18T10:49:57.913Z,14.94
2018-05-18T10:51:07.400Z,14.96
2018-05-18T10:52:17.159Z,14.85
2018-05-18T10:53:26.702Z,15.08
2018-05-18T10:54:36.721Z,15
2018-05-18T10:55:46.466Z,15.1
2018-05-18T10:56:56.212Z,15.02
2018-05-18T10:58:05.963Z,15.14
2018-05-18T10:59:15.708Z,15.17
2018-05-18T11:00:25.235Z,15.17
2018-05-18T11:01:34.984Z,15.36
2018-05-18T11:02:44.999Z,15.33
2018-05-18T11:03:55.023Z,15.33
2018-05-18T11:05:05.043Z,15.37
2018-05-18T11:06:15.064Z,15.47
2018-05-18T11:07:24.830Z,15.45
2018-05-18T11:08:34.580Z,15.62
2018-05-18T11:09:44.601Z,15.66
2018-05-18T11:10:54.619Z,15.63
2018-05-18T11:12:04.377Z,15.55
2018-05-18T11:13:14.390Z,15.6
2018-05-18T11:14:24.281Z,15.75
2018-05-18T11:15:34.296Z,15.84
2018-05-18T11:16:44.048Z,15.96
2018-05-18T11:17:53.990Z,16.08
2018-05-18T11:19:03.748Z,16.08
2018-05-18T11:20:13.693Z,16.16
2018-05-18T11:21:23.443Z,16.31
2018-05-18T11:22:33.457Z,16.51
2018-05-18T11:23:43.478Z,16.74
2018-05-18T11:24:53.494Z,17.1
2018-05-18T11:26:02.993Z,17.54
2018-05-18T11:27:12.473Z,18.06
2018-05-18T11:28:22.282Z,18.61
2018-05-18T11:29:32.316Z,19.11
2018-05-18T11:30:42.161Z,19.81
2018-05-18T11:31:51.381Z,20.44
2018-05-18T11:33:00.870Z,20.96
2018-05-18T11:34:10.134Z,21.56
2018-05-18T11:35:19.885Z,22.15
2018-05-18T11:36:29.642Z,22.67
2018-05-18T11:37:39.394Z,23.37
2018-05-18T11:38:49.148Z,23.85
2018-05-18T11:39:59.181Z,24.29
2018-05-18T11:41:08.403Z,24.86
2018-05-18T11:42:18.477Z,25.41
2018-05-18T11:43:28.498Z,26.01
2018-05-18T11:44:38.536Z,26.48
2018-05-18T11:45:48.567Z,26.83
2018-05-18T11:46:58.159Z,27.25
2018-05-18T11:48:07.908Z,27.58
2018-05-18T11:49:17.506Z,28.01
2018-05-18T11:50:27.800Z,28.25
2018-05-18T11:51:37.295Z,28.57
2018-05-18T11:52:47.317Z,28.93
2018-05-18T11:53:57.082Z,29.22
2018-05-18T11:55:06.580Z,29.39
2018-05-18T11:56:16.607Z,29.74
2018-05-18T11:57:26.365Z,30.14
2018-05-18T11:58:35.857Z,30.44
2018-05-18T11:59:45.967Z,30.8
2018-05-18T12:00:55.731Z,30.88
2018-05-18T12:02:05.493Z,31.11
2018-05-18T12:03:15.262Z,31.32
2018-05-18T12:04:24.754Z,31.51
2018-05-18T12:05:34.519Z,31.81
2018-05-18T12:06:44.315Z,32.15
2018-05-18T12:07:54.097Z,32.27
2018-05-18T12:09:04.139Z,32.59
2018-05-18T12:10:13.904Z,32.67
2018-05-18T12:11:23.664Z,32.75
2018-05-18T12:12:33.696Z,32.97
2018-05-18T12:13:42.925Z,33.17
2018-05-18T12:14:52.423Z,33.22
2018-05-18T12:16:02.287Z,33.16
2018-05-18T12:17:12.315Z,33.29
2018-05-18T12:18:22.370Z,33.38
2018-05-18T12:19:32.137Z,33.55
2018-05-18T12:20:42.170Z,33.75
2018-05-18T12:21:51.667Z,33.7
2018-05-18T12:23:01.168Z,33.97
2018-05-18T12:24:10.936Z,34.11
2018-05-18T12:25:20.701Z,34.07
2018-05-18T12:26:30.738Z,34.13
2018-05-18T12:27:40.501Z,34.24
2018-05-18T12:28:50.266Z,34.26
2018-05-18T12:30:00.037Z,34.18
2018-05-18T12:31:09.270Z,34.18
2018-05-18T12:32:19.051Z,34.37
2018-05-18T12:33:29.092Z,34.35
2018-05-18T12:34:39.126Z,34.28
2018-05-18T12:35:49.170Z,34.5
2018-05-18T12:36:59.203Z,34.44
2018-05-18T12:38:09.315Z,34.37
2018-05-18T12:39:19.365Z,34.43
2018-05-18T12:40:29.134Z,34.48
2018-05-18T12:41:38.909Z,34.25
2018-05-18T12:42:48.412Z,33.81
2018-05-18T12:43:58.186Z,34.16
2018-05-18T12:45:07.964Z,34.18
2018-05-18T12:46:18.009Z,34.33
2018-05-18T12:47:28.052Z,34.6
2018-05-18T12:48:38.092Z,34.73
2018-05-18T12:49:47.594Z,35.08
2018-05-18T12:50:57.636Z,35.35
2018-05-18T12:52:07.426Z,35.52
2018-05-18T12:53:17.202Z,35.64
2018-05-18T12:54:27.235Z,35.68
2018-05-18T12:55:37.016Z,35.91
2018-05-18T12:56:47.172Z,36.01
2018-05-18T12:57:57.207Z,35.86
2018-05-18T12:59:06.979Z,36.09
2018-05-18T13:00:17.011Z,36.28
2018-05-18T13:01:27.131Z,36.43
2018-05-18T13:02:37.175Z,36.06
2018-05-18T13:03:47.223Z,36.11
2018-05-18T13:04:57.303Z,36.24
2018-05-18T13:06:07.071Z,35.9
2018-05-18T13:07:16.836Z,35.82
2018-05-18T13:08:26.443Z,36.01
2018-05-18T13:09:36.485Z,36.22
2018-05-18T13:10:46.522Z,36.36
2018-05-18T13:11:56.334Z,36.39
2018-05-18T13:13:06.376Z,36.41
2018-05-18T13:14:16.466Z,36.39
2018-05-18T13:15:26.245Z,36.47
2018-05-18T13:16:36.275Z,36.59
2018-05-18T13:17:46.305Z,36.67
2018-05-18T13:18:56.344Z,36.82
2018-05-18T13:20:06.381Z,36.82
2018-05-18T13:21:16.425Z,37.16
2018-05-18T13:22:26.189Z,37.28
2018-05-18T13:23:36.225Z,37.41
2018-05-18T13:24:45.991Z,37.67
2018-05-18T13:25:56.026Z,37.76
2018-05-18T13:27:05.525Z,38.01
2018-05-18T13:28:15.571Z,37.97
2018-05-18T13:29:25.074Z,38.17
2018-05-18T13:30:34.632Z,38.07
2018-05-18T13:31:44.621Z,38.02
2018-05-18T13:32:54.398Z,38.01
2018-05-18T13:34:04.167Z,38.16
2018-05-18T13:35:13.946Z,38.01
2018-05-18T13:36:23.180Z,38.02
2018-05-18T13:37:33.224Z,37.5
2018-05-18T13:38:43.779Z,37.67
2018-05-18T13:39:54.177Z,37.75
2018-05-18T13:41:03.998Z,37.68
2018-05-18T13:42:13.778Z,37.76
2018-05-18T13:43:23.604Z,37.91
2018-05-18T13:44:33.633Z,38.09
2018-05-18T13:45:43.727Z,38.14
2018-05-18T13:46:53.763Z,37.97
2018-05-18T13:48:03.800Z,37.72
2018-05-18T13:49:13.566Z,37.78
2018-05-18T13:50:23.333Z,37.67
2018-05-18T13:51:33.376Z,37.63
2018-05-18T13:52:43.454Z,37.72
2018-05-18T13:53:52.955Z,37.98
2018-05-18T13:55:02.987Z,38.05
2018-05-18T13:56:12.484Z,38.25
2018-05-18T13:57:22.707Z,38.34
2018-05-18T13:58:32.480Z,38.38
2018-05-18T13:59:41.977Z,38.54
2018-05-18T14:00:51.476Z,38.51
2018-05-18T14:02:01.572Z,38.51
2018-05-18T14:03:10.810Z,38.72
2018-05-18T14:04:20.312Z,39.05
2018-05-18T14:05:30.082Z,39.08
2018-05-18T14:06:39.852Z,39.03
2018-05-18T14:07:49.618Z,39.03
2018-05-18T14:08:59.386Z,39.11
2018-05-18T14:10:09.159Z,38.95
2018-05-18T14:11:18.928Z,38.95
2018-05-18T14:12:28.426Z,39
2018-05-18T14:13:38.467Z,39.17
2018-05-18T14:14:48.506Z,39.22
2018-05-18T14:15:58.534Z,39.34
2018-05-18T14:17:08.598Z,39.38
2018-05-18T14:18:18.746Z,39.1
2018-05-18T14:19:28.788Z,39.23
2018-05-18T14:20:38.298Z,39.14
2018-05-18T14:21:48.061Z,39.1
2018-05-18T14:22:57.831Z,38.87
2018-05-18T14:24:07.595Z,38.77
2018-05-18T14:25:17.381Z,38.95
2018-05-18T14:26:27.628Z,39.04
2018-05-18T14:27:37.868Z,38.56
2018-05-18T14:28:47.903Z,38.36
2018-05-18T14:29:57.409Z,38.07
2018-05-18T14:31:07.188Z,38
2018-05-18T14:32:16.425Z,38.12
2018-05-18T14:33:26.596Z,38.23
2018-05-18T14:34:36.635Z,38.39
2018-05-18T14:35:46.674Z,38.53
2018-05-18T14:36:56.723Z,38.29
2018-05-18T14:38:06.752Z,38.39
2018-05-18T14:39:16.914Z,38.57
2018-05-18T14:40:26.959Z,38.57
2018-05-18T14:41:36.453Z,38.65
2018-05-18T14:42:46.235Z,38.77
2018-05-18T14:43:56.433Z,38.75
2018-05-18T14:45:06.465Z,38.72
2018-05-18T14:46:16.506Z,38.63
2018-05-18T14:47:26.542Z,38.72
2018-05-18T14:48:36.307Z,38.77
2018-05-18T14:49:45.811Z,38.68
2018-05-18T14:50:55.586Z,38.42
2018-05-18T14:52:04.823Z,38.1
2018-05-18T14:53:14.324Z,38.09
2018-05-18T14:54:24.087Z,37.83
2018-05-18T14:55:33.316Z,38.01
2018-05-18T14:56:42.811Z,38.39
2018-05-18T14:57:52.572Z,38.34
2018-05-18T14:59:02.613Z,38.48
2018-05-18T15:00:12.651Z,38.72
2018-05-18T15:01:22.693Z,38.6
2018-05-18T15:02:32.194Z,38.44
2018-05-18T15:03:41.963Z,38.34
2018-05-18T15:04:51.464Z,38.36
2018-05-18T15:06:01.495Z,38.47
2018-05-18T15:07:11.271Z,38.32
2018-05-18T15:08:21.305Z,38.41
2018-05-18T15:09:31.080Z,38.57
2018-05-18T15:10:40.950Z,38.7
2018-05-18T15:11:50.981Z,38.63
2018-05-18T15:13:00.753Z,38.58
2018-05-18T15:14:10.257Z,38.63
2018-05-18T15:15:20.303Z,38.87
2018-05-18T15:16:30.192Z,38.62
2018-05-18T15:17:39.418Z,38.31